Quantcast
Home
Market Movers
Company Pages

6 Months Gainers

Symbol Name Last Percent 6-Months Percent Time
TROVUTrovaGene Inc. 199999+1170169.16%+791661.68%12/21/2015
CLTXCollateral Therapeutics Inc.15.9-5.86%+2415.82%01/15/2016
GYROGyrodyne Company of America Inc. 26.7-0.52%+827.08%01/15/2016
KBIOKaloBios Pharmaceuticals23.59-5.09%+686.33%12/16/2015
HEROHercules Offshore Inc. 1.12-10.4%+453.63%01/15/2016
AQXPAquinox Pharmaceuticals9.21+12.32%+403.28%01/15/2016
WTWWeight Watchers International Inc.13.76-4.44%+246.6%01/15/2016
ADATAuthentidate Holding Corp.0.53-5.02%+209.94%01/15/2016
HTCHHutchinson Technology Incorporated3.5+0.14%+153.26%15:45:09
TZFBears Stearns Depositor Inc.90+20%+143.24%11/30/2015
PACBPacific Biosciences of California Inc. 12.85+1.98%+142.45%01/15/2016
GAIGlobal - Tech Advanced Innovations Inc. 8.12-0.47%+138.18%01/15/2016
SPROSmartPros Ltd.3.56+0.85%+135.61%12/22/2015
ERIIEnergy Recovery, Inc.6.37-4.5%+133.33%01/15/2016
ENVIEnvivio Inc. 4.1+0.24%+131.64%10/26/2015
PNXThe Phoenix Companies Inc.35.87-0.17%+129.79%15:45:14
TECUTecumseh Products Co4.99-0.2%+115.09%09/21/2015
WGWillbros Group Inc.2.09-3.69%+100.96%01/15/2016
MEETMeetMe Inc.3.31-5.7%+98.2%01/15/2016
EDUCEducational Development Corporation9.22-0.84%+94.75%01/15/2016
NTLSNTELOS Holdings Corp.9.16-0.54%+92.84%01/15/2016
NCTYTHE9 Limited2.76-1.43%+86.49%01/15/2016
SPHSSophiris Bio1.67+5.03%+85.56%01/15/2016
IGLDInternet Gold Golden Lines Ltd.9.93-1.1%+80.55%01/15/2016
FXENPFx Energy Inc.25.6+0.04%+77.53%01/06/2016
MSGThe Madison Square Garden Company 147.39-0.83%+77.02%01/15/2016
AMRKA-Mark Precious Metals Inc.18.43+10.76%+75.69%01/15/2016
ADEPAdept Technology Inc. 12.99+0.08%+74.83%15:45:02
LPTHLightPath Technologies Inc. 3.21+4.56%+73.51%01/15/2016
XUEXueda Education Group5.36+0.19%+70.7%01/15/2016
NYMXNymox Pharmaceutical Corporation2.2-1.35%+69.23%01/15/2016
FORDForward Industries Inc. 1.15-5.74%+64.29%01/15/2016
OCATOcata Therapeutics Inc.8.42-0.12%+64.13%01/15/2016
HPYHeartland Payment Systems Inc.90.18-0.02%+61.44%01/15/2016
SOCBSouthcoast Financial Corporation13.48-1.74%+61.44%01/15/2016
BDBDSmart Balance Inc.11.03+0.36%+60.79%01/15/2016
EPAXAmbassadors Group Inc. 2.89-0.69%+60.56%10/22/2015
LINCLincoln Educational Services Corporation2.66+7.26%+60.24%01/15/2016
OCLROclaro, Inc. 3.55-2.47%+59.91%01/15/2016
FIZZNational Beverage Corp.38.29-8.22%+59.74%01/15/2016
PNYPiedmont Natural Gas Co Inc.58+0.1%+58%01/15/2016
SLPSimulations Plus Inc. 10.55-3.57%+56.3%01/15/2016
BCOMB Communications Ltd. 24.9+1.63%+55.72%15:15:03
EZCHEZchip Semiconductor Limited25.04-0.08%+54.57%01/15/2016
IESCIntegrated Electrical Services Inc. 10.94-1.53%+54.08%01/15/2016
PLNRPlanar Systems Inc. 6.58+4.28%+53.38%11/27/2015
EXTRExtreme Networks, Inc.3.6-2.97%+52.54%01/15/2016
HILLDot Hill Systems Corporation9.75+0.31%+51.4%10/05/2015
MAGMagnetek Inc.50.060%+50.42%02:52:04
PBYPep Boys Manny Moe & Jack18.46+0.05%+50.33%01/15/2016
RIVRRiver Valley Bancorp.34.13+0.83%+49.04%01/14/2016
CELCellcom Israel Ltd.6.45-3.15%+48.62%01/15/2016
MRGEMerge Healthcare Incorporated.7.12-0.14%+47.72%10/13/2015
BAKBraskem S.A.12.24-2%+47.29%01/15/2016
FONRFonar Corporation14.82-0.8%+47.1%01/15/2016
AVGRAvinger Inc.18.41+0.6%+47.04%01/15/2016
ITEKInotek Pharmaceuticals7.79-3.59%+46.98%01/15/2016
PMCSPMC - Sierra Inc. 11.65+0.52%+46.91%01/14/2016
SFGStanCorp Financial Group Inc.113.85-0.16%+46.41%01/15/2016
JAXBJacksonville Bancorp Inc. 17.4+1.4%+45.61%01/14/2016
TETECO Energy Inc.26.91-0.04%+44.83%01/15/2016
SURGSynergetics USA Inc. 6.69+1.36%+44.81%10/15/2015
CLBHCarolina Bank Holdings Inc.17.76-0.56%+43.34%01/15/2016
IPCMIPC The Hospitalist Company, Inc.80.17+0.01%+43.34%11/20/2015
ENZEnzo Biochem Inc.4.52-0.22%+43.04%01/15/2016
ULBIUltralife Corporation5.75-4.33%+43.03%01/15/2016
OMEOmega Protein Corporation19.43-5.17%+41.82%01/15/2016
MDASMedAssets Inc. 31.16-0.1%+41.7%01/15/2016
YOKUYouku Inc.27.09-0.33%+40.87%01/15/2016
CUICUI Global Inc. 6.61+1.69%+40.34%01/15/2016
FXENFX Energy Inc. 1.15+0.01%+40.24%01/01/2016
AMICAmerican Independence Corp.14.5+0.07%+40.23%01/15/2016
BORNChina New Borun Corporation1.47-2%+40%01/15/2016
IKANIkanos Communications Inc. 2.74+0%+39.8%15:45:12
LOJNLoJack Corporation4.92-0.61%+39.77%01/15/2016
PRMWPrimo Water8.33-4.69%+39.3%01/15/2016
DERMDermira Inc. 28.74-1.71%+39.18%01/15/2016
CHLNChina Housing & Land Development Inc. 2.89-3.99%+38.94%01/15/2016
PSEMPericom Semiconductor Corporation17.74-0.06%+38.27%11/24/2015
JMGJournal Media Group Inc.11.91-0.75%+38.17%01/15/2016
AXGNAxoGen Inc.4.61-3.56%+38.02%01/15/2016
FSLRFirst Solar, Inc.61.32-0.75%+37.83%01/15/2016
NVDANVIDIA Corporation27.11-5.44%+37.27%01/15/2016
FIVNFive97.38-1.86%+37.17%01/15/2016
THORThoratec Corporation63.5+0.08%+36.71%10/08/2015
LDOSLeidos Holdings Inc.54.98-1.51%+36.33%01/15/2016
CBNJCape Bancorp Inc. 13.48-1.25%+36.16%01/15/2016
DYAXDyax Corp.38.09-0.11%+35.94%01/15/2016
MUXMcEwen Mining Inc.1.06+0.95%+35.9%01/15/2016
NCITNCI, Inc.14+1.38%+35.66%01/15/2016
ATVIActivision Blizzard Inc. 34.91-1.38%+35.49%01/15/2016
EFUTeFuture Information Technology Inc. 7-2.64%+35.4%01/15/2016
NSANational Storage Affiliates Trust16.62-1.72%+34.36%01/15/2016
DRDDRDGOLD Limited2.27+9.66%+34.32%01/15/2016
HMYHarmony Gold Mining Company Limited1.61+8.05%+34.17%01/15/2016
LMATLeMaitre Vascular Inc. 15.12-3.2%+34.04%01/15/2016
MNRKMonarch Financial Holdings Inc. 16.94-1.4%+33.91%01/15/2016
OTELOtelco Inc.6.08-3.87%+33.63%01/15/2016
ATAIATA Inc.5.55-1.77%+33.57%01/15/2016
CRVLCorVel Corp.42.55-1.23%+33.43%01/15/2016
ARGAirgas Inc.138.3-0.2%+32.99%01/15/2016
SLHSolera Holdings Inc.53.81-0.28%+32.44%01/15/2016
HNNAHennessy Advisors Inc.26.85+0.08%+31.94%01/15/2016
ATHNathenahealth, Inc.149.57-1.43%+31.7%01/15/2016
HAHawaiian Holdings, Inc.31.67+1.47%+31.63%01/15/2016
HRLHormel Foods Corporation76.12-3.45%+31.56%01/15/2016
GASAGL Resources Inc.63.58+0.03%+31.47%01/15/2016
CTIBCTI Industries Corporation4.81-6.24%+31.42%01/14/2016
CYTKCytokinetics, Incorporated8.72-0.8%+31.33%01/15/2016
NVRONevro65.45-1.46%+31.19%01/15/2016
PTNRPartner Communications Company Ltd.4.21-3.44%+31.15%01/15/2016
UNTYUnity Bancorp Inc. 12.8-1.01%+31.15%01/15/2016
GMCRKeurig Green Mountain Inc. 90.02-0.1%+30.77%01/15/2016
NXTMNxStage Medical, Inc.18.87-0.84%+30.68%01/15/2016
FPRXFive Prime Therapeutics Inc. 33.62+0.06%+30.66%01/15/2016
INTGThe Intergroup Corporation26.75+1.91%+30.11%01/15/2016
SNDKSanDisk Corporation71.48-4.48%+30.06%01/15/2016
UFPIUniversal Forest Products Inc. 66.65+1.45%+29.74%01/15/2016
BXLTBaxalta Incorporated40.13-2.15%+29.58%01/15/2016
CNWCon-Way Inc.47.55+0.04%+29.53%10/29/2015
SYASymetra Financial Corporation31.85+0.09%+29.52%01/15/2016
ABMDABIOMED, Inc.87.41-0.54%+29.4%01/15/2016
NTWKNetSol Technologies Inc.6.66-0.6%+29.32%01/15/2016
AEPIAEP Industries Inc.78.52+1.28%+29.25%01/15/2016
CASMCAS Medical Systems Inc. 1.68-3.45%+29.23%01/15/2016
PLABPhotronics Inc. 11.65-1.94%+28.59%01/15/2016
PGIPremiere Global Services Inc.13.99+0.14%+28.58%12/08/2015
ELTKEltek Ltd.1.14-9.52%+28.09%15:45:06
SGISilicon Graphics International Corp 6.9-0.86%+28.01%01/15/2016
AMSCAmerican Superconductor Corporation6.39+9.98%+27.8%01/15/2016
WFBIWashingtonFirst Bankshares Inc.21.35-3.35%+27.49%01/15/2016
EGHT8x8 Inc. 10.94-1.88%+27.36%01/15/2016
MGPIMGP Ingredients Inc. 21.33-3.13%+27.34%01/15/2016
NAIINatural Alternatives International Inc. 7.34-8.14%+27.21%01/15/2016
YDLEYodlee Inc. 17.37-1.03%+27.07%11/19/2015
PSBHPSB Holdings Inc. 10.25-0.49%+26.86%01/07/2016
SWISolarWinds Inc.58.96-0.17%+26.52%01/15/2016
JRVRJames River Group Holdings Ltd. 33.12-0.27%+26.36%01/15/2016
STRLSterling Construction Company Inc. 5.04+1%+26.32%01/15/2016
XRSTAL Education Group41.82-2.38%+26.31%01/15/2016
ITCIIntra-Cellular Therapies Inc.45.41+4.44%+26.28%01/15/2016
RDCMRadcom Ltd.12.41-3.35%+26.03%01/15/2016
SASeabridge Gold Inc.6.78-1.88%+26.02%01/15/2016
SPKESpark Energy Inc. 20.87+2%+25.87%01/15/2016
VLRSVolaris Aviation Holding16.46-3.29%+25.55%01/15/2016
LANCLancaster Colony Corporation114.72-0.43%+25.53%01/15/2016
SWHCSmith & Wesson Holding Corporation20.55-1.3%+25.23%01/15/2016
CRAYCray Inc.33.06-2.62%+25.18%01/15/2016
ONEHigher One Holdings Inc.3.39+3.04%+25.09%01/15/2016
PSAPublic Storage248.55-0.47%+25.06%01/15/2016
DAEGDaegis Inc. 0.8-2.32%+25.02%11/20/2015
FALCFalconStor Software Inc. 1.81-1.09%+24.83%01/15/2016
VIMCVimicro International Corporation13.43+0.08%+24.81%12/18/2015
HSONHudson Global Inc.2.74-1.79%+24.55%01/15/2016
AFFXAffymetrix Inc. 13.91+0.43%+24.31%01/15/2016
AUDCAudioCodes Ltd.3.94-1.5%+24.29%01/15/2016
NTGRNETGEAR Inc. 36.37-3.07%+24.09%01/15/2016
AVOLAvolon Holdings30.93-0.07%+23.97%01/07/2016
GOOGGoogle Inc.694.45-2.84%+23.96%01/15/2016
FSVFirstService Corporation 34.66-0.97%+23.74%01/15/2016
BNKC1 Financial23.99+0.08%+23.72%01/15/2016
EXRExtra Space Storage Inc.86.03-1.36%+23.66%01/15/2016
DMNDDiamond Foods Inc. 39.41-0.71%+23.66%01/15/2016
AMZNAmazon.com Inc. 570.18-3.85%+23.63%01/15/2016
ARTNAArtesian Resources Corporation - Class A Non26.74-1.58%+23.57%01/15/2016
CORECore - Mark Holding Company Inc. 76.6+2%+22.99%01/15/2016
STMPStamps.com Inc.91.59-5.64%+22.94%01/15/2016
SMBCSouthern Missouri Bancorp Inc. 23.05-1.92%+22.93%01/15/2016
LONGeLong Inc. 16.91+1.75%+22.89%01/15/2016
EDEEmpire District Electric Co.27.69-1.88%+22.63%01/15/2016
STZConstellation Brands Inc.142.75-0.35%+22.6%01/15/2016
MAMSMAM Software Group Inc.6.55-3.11%+22.43%01/15/2016
CENTCentral Garden & Pet Company12.34-3.22%+22.42%01/15/2016
CYTCytec Industries Inc.75.17+0.03%+22.41%12/08/2015
VALUValue Line Inc. 13.09+0.23%+22.34%01/15/2016
FIXComfort Systems USA Inc.28.09-1.44%+22.24%01/15/2016
TAYDTaylor Devices Inc. 15.34-2.17%+22.23%01/15/2016
CUBECubeSmart30.57+0.36%+22.13%01/15/2016
OPOFOld Point Financial Corporation18.47+0.93%+22%01/15/2016
GOOGLGoogle Inc.710.49-2.86%+21.67%01/15/2016
FCSFairchild Semiconductor International Inc.20.38-0.88%+21.24%01/15/2016
CCGCampus Crest Communities Inc.6.77-0.59%+21.11%01/15/2016
FRBKRepublic First Bancorp Inc. 4.25+2.16%+21.08%01/15/2016
RTNRaytheon Company120.29-1.02%+20.97%01/15/2016
PCPPRECISION CASTPARTS CORP232.11-0.05%+20.82%01/15/2016
AGROAdecoagro S.A.11.35-3.81%+20.74%01/15/2016
NLSTNetlist Inc. 0.7-2.24%+20.69%01/15/2016
LOXOLoxo Oncology20.67-4.66%+20.67%01/15/2016
NORNoranda Aluminum Holding Corporation0.76+1.33%+20.63%11/26/2015
MGCDAngeion Corp6.55-4.94%+20.63%01/15/2016
NAMERightside Group Ltd. 8.78-1.9%+20.6%01/15/2016
VRAVera Bradley Inc. 14.07+1.37%+20.46%01/15/2016
SBGLSibanye Gold Limited7.78+6.72%+20.43%01/15/2016
HIIQHealth Insurance Innovations6.13-9.99%+20.43%01/15/2016
LXRXLexicon Pharmaceuticals, Inc.10.28-2.84%+20.37%01/15/2016
RNGRingCentral Inc.20.92-1.83%+20.37%01/15/2016
TGSTransportadora de Gas del Sur5.62+2%+20.34%01/15/2016
AAMEAtlantic American Corporation4.45+0.79%+20.27%01/15/2016
SFSTSouthern First Bancshares Inc. 22.62-4.36%+20.19%01/15/2016
TAPMolson Coors Brewing Company86.03-0.82%+20.02%01/15/2016
Symbol Name Last Percent 6-Months Percent Time